Time;durP1;ratioP1;P1;durP2;ratioP2;P2;SDS_P1;SDS_P2;PMS_P1;PMS_P2;Temp;Humidity;BMP_temperature;BMP_pressure;BME280_temperature;BME280_humidity;BME280_pressure;Samples;Min_cycle;Max_cycle;Signal;HPM_P1;HPM_P2
2023/05/05 00:01:02;;;;;;;;;;;;;;;18.42;79.90;100096.97;5092077;28;19912;-55
2023/05/05 00:03:27;;;;;;;;;;;;;;;18.37;79.88;100094.53;5090463;28;20383;-55
2023/05/05 00:05:53;;;;;;;;;;;;;;;18.37;80.02;100090.97;5091260;28;19943;-55
2023/05/05 00:08:18;;;;;;;;;;;;;;;18.37;80.33;100089.16;5091982;28;19923;-55
2023/05/05 00:10:44;;;;;;;;;;;;;;;18.38;80.11;100090.88;5092070;28;19979;-55
2023/05/05 00:13:10;;;;;;;;;;;;;;;18.38;80.16;100085.47;5091219;28;19927;-55
2023/05/05 00:15:35;;;;;;;;;;;;;;;18.40;80.17;100079.19;5091888;28;19916;-55
2023/05/05 00:18:01;;;;;;;;;;;;;;;18.37;80.50;100089.16;5092005;28;19939;-55
2023/05/05 00:20:26;;;;;;;;;;;;;;;18.31;80.86;100083.28;5090805;28;19927;-55
2023/05/05 00:22:51;;;;;;;;;;;;;;;18.26;81.17;100091.66;5091451;28;19970;-55
2023/05/05 00:25:16;;;;;;;;;;;;;;;18.23;82.04;100091.84;5090542;28;19926;-55
2023/05/05 00:27:42;;;;;;;;;;;;;;;18.17;81.97;100094.91;5091507;28;19927;-55
2023/05/05 00:30:07;;;;;;;;;;;;;;;18.15;82.08;100091.44;5090340;28;20368;-55
2023/05/05 00:32:32;;;;;;;;;;;;;;;18.17;81.70;100091.38;5091529;28;19921;-55
2023/05/05 00:34:58;;;;;;;;;;;;;;;18.17;81.75;100094.91;5093449;28;19927;-55
2023/05/05 00:37:23;;;;;;;;;;;;;;;18.14;81.38;100095.09;5091164;28;19919;-55
2023/05/05 00:39:48;;;;;;;;;;;;;;;18.18;81.08;100091.28;5091187;28;19919;-55
2023/05/05 00:42:14;;;;;;;;;;;;;;;18.19;81.25;100095.69;5091012;28;19923;-55
2023/05/05 00:44:40;;;;;;;;;;;;;;;18.21;81.29;100104.53;5091080;28;19916;-55
2023/05/05 00:47:07;;;;;;;;;;;;;;;18.19;80.56;100103.78;5089162;28;19923;-55
2023/05/05 00:49:33;;;;;;;;;;;;;;;18.17;80.86;100103.00;5089907;28;19920;-55
2023/05/05 00:51:58;;;;;;;;;;;;;;;18.14;81.19;100103.19;5088828;28;20637;-55
2023/05/05 00:54:24;;;;;;;;;;;;;;;18.12;81.36;100099.72;5088036;28;19916;-55
2023/05/05 00:56:50;;;;;;;;;;;;;;;18.12;81.71;100107.78;5082623;28;20007;-55
2023/05/05 00:59:16;;;;;;;;;;;;;;;18.10;81.81;100098.94;5089908;28;19916;-55
2023/05/05 01:01:41;;;;;;;;;;;;;;;18.09;81.59;100099.91;5090278;28;20158;-55
2023/05/05 01:04:07;;;;;;;;;;;;;;;18.08;81.68;100102.69;5090875;28;20347;-55
2023/05/05 01:06:33;;;;;;;;;;;;;;;18.05;81.67;100103.78;5090817;28;19958;-55
2023/05/05 01:09:00;;;;;;;;;;;;;;;18.03;82.29;100105.69;5092486;28;20007;-55
2023/05/05 01:11:30;;;;;;;;;;;;;;;18.01;82.61;100104.91;5088363;28;19991;-55
2023/05/05 01:14:02;;;;;;;;;;;;;;;18.01;82.23;100112.97;5089284;28;19920;-55
2023/05/05 01:16:29;;;;;;;;;;;;;;;17.99;81.94;100100.59;5090011;28;20476;-55
2023/05/05 01:19:13;;;;;;;;;;;;;;;17.98;81.74;100102.41;5088846;28;19924;-55
2023/05/05 01:21:44;;;;;;;;;;;;;;;17.96;81.61;100115.09;5089868;28;19923;-55
2023/05/05 01:24:22;;;;;;;;;;;;;;;17.92;82.21;100116.22;5071331;28;19981;-55
2023/05/05 01:27:10;;;;;;;;;;;;;;;17.91;82.66;100117.19;5090683;28;20002;-55
2023/05/05 01:29:54;;;;;;;;;;;;;;;17.91;82.76;100117.19;5081166;28;19923;-55
2023/05/05 01:32:23;;;;;;;;;;;;;;;17.90;82.33;100106.53;5086746;28;19920;-55
2023/05/05 01:34:52;;;;;;;;;;;;;;;17.87;81.70;100109.41;5090376;28;19923;-55
2023/05/05 01:37:21;;;;;;;;;;;;;;;17.92;81.85;100115.38;5090313;28;19951;-55
2023/05/05 01:39:48;;;;;;;;;;;;;;;17.88;81.92;100113.81;5094808;28;19943;-55
2023/05/05 01:42:17;;;;;;;;;;;;;;;17.88;81.75;100112.00;5089393;28;20318;-55
2023/05/05 01:44:43;;;;;;;;;;;;;;;17.95;81.47;100116.06;5090090;28;19955;-55
2023/05/05 01:47:12;;;;;;;;;;;;;;;17.96;81.54;100120.47;5088346;28;19973;-55
2023/05/05 01:49:37;;;;;;;;;;;;;;;18.03;81.60;100124.53;5071630;28;19997;-56
2023/05/05 01:52:03;;;;;;;;;;;;;;;18.05;81.08;100113.66;5090123;28;19916;-55
2023/05/05 01:54:30;;;;;;;;;;;;;;;18.04;80.72;100118.16;5090082;28;19955;-55
2023/05/05 01:56:57;;;;;;;;;;;;;;;18.07;80.52;100109.91;5088703;28;19916;-55
2023/05/05 01:59:24;;;;;;;;;;;;;;;17.98;80.36;100110.47;5089712;28;19916;-55
2023/05/05 02:01:50;;;;;;;;;;;;;;;17.99;80.32;100120.28;5089281;28;19920;-55
2023/05/05 02:04:16;;;;;;;;;;;;;;;17.93;80.33;100112.59;5089358;28;19976;-55
2023/05/05 02:06:43;;;;;;;;;;;;;;;17.89;80.60;100119.09;5089803;28;20330;-55
2023/05/05 02:09:10;;;;;;;;;;;;;;;17.84;80.74;100121.19;5088349;28;19979;-55
2023/05/05 02:11:37;;;;;;;;;;;;;;;17.85;80.78;100128.34;5088944;28;19916;-55
2023/05/05 02:14:04;;;;;;;;;;;;;;;17.85;80.36;100133.72;5089578;28;20427;-55
2023/05/05 02:16:30;;;;;;;;;;;;;;;17.83;80.26;100127.56;5089898;28;20329;-55
2023/05/05 02:18:56;;;;;;;;;;;;;;;17.87;79.92;100131.81;5088631;28;19920;-56
2023/05/05 02:21:22;;;;;;;;;;;;;;;17.85;79.88;100131.03;5089679;28;20323;-55
2023/05/05 02:23:50;;;;;;;;;;;;;;;17.87;79.15;100136.31;5089868;28;19916;-56
2023/05/05 02:26:17;;;;;;;;;;;;;;;17.91;80.06;100132.47;5088852;28;19946;-55
2023/05/05 02:28:47;;;;;;;;;;;;;;;17.87;80.06;100128.25;5090022;28;19923;-55
2023/05/05 02:31:15;;;;;;;;;;;;;;;17.83;79.75;100135.63;5089019;28;19930;-55
2023/05/05 02:33:42;;;;;;;;;;;;;;;17.83;79.93;100134.75;5089807;28;19927;-55
2023/05/05 02:36:12;;;;;;;;;;;;;;;17.78;80.18;100136.84;5089546;28;19955;-56
2023/05/05 02:38:40;;;;;;;;;;;;;;;17.74;80.09;100127.25;5089017;28;20294;-55
2023/05/05 02:41:06;;;;;;;;;;;;;;;17.70;80.42;100131.06;5096753;28;20333;-55
2023/05/05 02:43:32;;;;;;;;;;;;;;;17.68;80.92;100124.91;5088462;28;19920;-55
2023/05/05 02:45:58;;;;;;;;;;;;;;;17.64;81.04;100118.00;5071217;28;19916;-55
2023/05/05 02:48:23;;;;;;;;;;;;;;;17.58;81.01;100129.97;5089284;28;20376;-55
2023/05/05 02:50:48;;;;;;;;;;;;;;;17.62;81.26;100128.84;5088640;28;19927;-55
2023/05/05 02:53:14;;;;;;;;;;;;;;;17.62;81.91;100134.22;5092364;28;19946;-56
2023/05/05 02:55:53;;;;;;;;;;;;;;;17.56;82.26;100134.56;5093220;28;20406;-56
2023/05/05 02:58:18;;;;;;;;;;;;;;;17.46;82.79;100127.16;5092469;28;19981;-56
2023/05/05 03:01:02;;;;;;;;;;;;;;;17.35;83.73;100119.66;5092520;28;19916;-56
2023/05/05 03:03:45;;;;;;;;;;;;;;;17.28;84.08;100130.88;5091042;28;19959;-56
2023/05/05 03:06:13;;;;;;;;;;;;;;;17.21;85.37;100134.88;5091804;28;19995;-55
2023/05/05 03:08:51;;;;;;;;;;;;;;;17.19;85.13;100132.28;5092162;28;19926;-55
2023/05/05 03:11:26;;;;;;;;;;;;;;;17.14;85.74;100139.75;5079480;28;19920;-55
2023/05/05 03:13:55;;;;;;;;;;;;;;;17.15;85.90;100140.63;5087644;28;19920;-55
2023/05/05 03:16:22;;;;;;;;;;;;;;;17.13;86.64;100146.09;5095363;28;19912;-55
2023/05/05 03:18:48;;;;;;;;;;;;;;;17.16;86.58;100132.47;5093068;28;19916;-55
2023/05/05 03:21:13;;;;;;;;;;;;;;;17.16;86.81;100135.16;5092992;28;20313;-56
2023/05/05 03:23:39;;;;;;;;;;;;;;;17.11;87.10;100134.53;5092381;28;20059;-55
2023/05/05 03:26:04;;;;;;;;;;;;;;;17.03;87.46;100128.75;5092830;28;20007;-55
2023/05/05 03:28:30;;;;;;;;;;;;;;;16.99;87.93;100135.22;5091776;28;19924;-55
2023/05/05 03:30:55;;;;;;;;;;;;;;;16.96;88.35;100135.41;5091870;28;20315;-55
2023/05/05 03:33:21;;;;;;;;;;;;;;;16.88;88.33;100138.53;5094068;28;20674;-55
2023/05/05 03:35:46;;;;;;;;;;;;;;;16.81;88.17;100138.94;5091694;28;19916;-55
2023/05/05 03:38:11;;;;;;;;;;;;;;;16.83;88.83;100140.63;5090907;28;19931;-55
2023/05/05 03:40:36;;;;;;;;;;;;;;;16.80;88.70;100135.38;5091707;28;20350;-55
2023/05/05 03:43:02;;;;;;;;;;;;;;;16.73;88.68;100138.53;5073178;28;20391;-55
2023/05/05 03:45:27;;;;;;;;;;;;;;;16.67;89.15;100149.63;5091363;28;19951;-55
2023/05/05 03:47:52;;;;;;;;;;;;;;;16.60;89.15;100151.78;5093557;28;19970;-55
2023/05/05 03:50:18;;;;;;;;;;;;;;;16.56;89.15;100152.88;5091700;28;20498;-56
2023/05/05 03:52:43;;;;;;;;;;;;;;;16.57;89.08;100164.50;5091430;28;20583;-55
2023/05/05 03:55:08;;;;;;;;;;;;;;;16.56;89.10;100162.75;5090420;28;19916;-56
2023/05/05 03:57:34;;;;;;;;;;;;;;;16.59;89.05;100152.72;5091650;28;19916;-55
2023/05/05 04:00:00;;;;;;;;;;;;;;;16.63;89.55;100158.78;5092082;28;19912;-56
2023/05/05 04:02:25;;;;;;;;;;;;;;;16.76;89.00;100146.41;5092033;28;19959;-55
2023/05/05 04:04:50;;;;;;;;;;;;;;;16.89;88.57;100150.13;5090350;28;19924;-55
2023/05/05 04:07:18;;;;;;;;;;;;;;;16.94;89.03;100150.75;5092109;28;20288;-55
2023/05/05 04:09:44;;;;;;;;;;;;;;;16.97;89.41;100142.50;5090379;28;19927;-55
2023/05/05 04:12:10;;;;;;;;;;;;;;;17.00;89.34;100145.91;5088721;28;19916;-56
2023/05/05 04:14:35;;;;;;;;;;;;;;;17.04;89.63;100150.16;5090428;28;19955;-56
2023/05/05 04:17:00;;;;;;;;;;;;;;;17.07;89.23;100154.47;5091771;28;19920;-55
2023/05/05 04:19:25;;;;;;;;;;;;;;;17.08;89.07;100161.59;5091855;28;19912;-55
2023/05/05 04:21:51;;;;;;;;;;;;;;;17.13;88.55;100164.91;5091849;28;20019;-56
2023/05/05 04:24:21;;;;;;;;;;;;;;;17.20;88.02;100178.84;5090269;28;19920;-55
2023/05/05 04:26:47;;;;;;;;;;;;;;;17.27;87.76;100173.03;5091655;28;19912;-55
2023/05/05 04:29:12;;;;;;;;;;;;;;;17.35;87.30;100164.53;5090711;28;19977;-55
2023/05/05 04:31:37;;;;;;;;;;;;;;;17.37;86.74;100166.16;5091386;28;19977;-55
2023/05/05 04:34:02;;;;;;;;;;;;;;;17.44;86.82;100164.88;5091508;28;19922;-56
2023/05/05 04:36:28;;;;;;;;;;;;;;;17.49;87.03;100165.50;5091026;28;20559;-55
2023/05/05 04:38:53;;;;;;;;;;;;;;;17.55;87.32;100172.31;5091506;28;19969;-55
2023/05/05 04:41:18;;;;;;;;;;;;;;;17.56;86.59;100172.22;5091045;28;19923;-55
2023/05/05 04:43:44;;;;;;;;;;;;;;;17.60;85.90;100171.09;5096666;28;19923;-55
2023/05/05 04:46:10;;;;;;;;;;;;;;;17.67;84.64;100171.59;5090159;28;19927;-55
2023/05/05 04:48:36;;;;;;;;;;;;;;;17.71;84.01;100178.56;5091137;28;19924;-55
2023/05/05 04:51:05;;;;;;;;;;;;;;;17.80;83.35;100181.56;5090764;28;19920;-55
2023/05/05 04:53:31;;;;;;;;;;;;;;;17.91;83.45;100187.16;5090223;28;20018;-55
2023/05/05 04:55:56;;;;;;;;;;;;;;;18.04;83.44;100176.50;5091121;28;20010;-55
2023/05/05 04:58:21;;;;;;;;;;;;;;;18.09;82.63;100179.78;5091254;28;19916;-55
2023/05/05 05:00:46;;;;;;;;;;;;;;;18.15;82.11;100180.28;5089848;28;20002;-55
2023/05/05 05:03:12;;;;;;;;;;;;;;;18.25;81.69;100178.78;5090073;28;19923;-55
2023/05/05 05:05:37;;;;;;;;;;;;;;;18.37;82.98;100183.41;5090843;28;19969;-55
2023/05/05 05:08:02;;;;;;;;;;;;;;;18.43;83.78;100184.03;5071870;28;20280;-55
2023/05/05 05:10:28;;;;;;;;;;;;;;;18.45;83.40;100182.97;5090715;28;19997;-55
2023/05/05 05:12:53;;;;;;;;;;;;;;;18.45;83.01;100182.13;5090628;28;19998;-55
2023/05/05 05:15:18;;;;;;;;;;;;;;;18.44;82.76;100188.44;5090879;28;20002;-55
2023/05/05 05:17:43;;;;;;;;;;;;;;;18.41;82.26;100196.72;5091054;28;19916;-55
2023/05/05 05:20:09;;;;;;;;;;;;;;;18.41;82.06;100194.03;5090773;28;19916;-55
2023/05/05 05:22:37;;;;;;;;;;;;;;;18.41;82.05;100199.41;5089739;28;19923;-55
2023/05/05 05:25:02;;;;;;;;;;;;;;;18.42;81.81;100198.47;5090702;28;20006;-55
2023/05/05 05:27:27;;;;;;;;;;;;;;;18.45;82.16;100193.72;5089415;28;20344;-55
2023/05/05 05:29:53;;;;;;;;;;;;;;;18.51;82.33;100198.75;5090089;28;19963;-55
2023/05/05 05:32:18;;;;;;;;;;;;;;;18.54;81.57;100198.56;5091347;28;19920;-55
2023/05/05 05:34:43;;;;;;;;;;;;;;;18.60;81.44;100202.72;5073805;28;20406;-55
2023/05/05 05:37:08;;;;;;;;;;;;;;;18.61;81.48;100197.22;5090008;28;19915;-55
2023/05/05 05:39:33;;;;;;;;;;;;;;;18.69;80.51;100204.81;5089471;28;19916;-55
2023/05/05 05:41:59;;;;;;;;;;;;;;;18.85;80.72;100209.16;5090155;28;19978;-55
2023/05/05 05:44:24;;;;;;;;;;;;;;;19.05;79.59;100207.88;5090229;28;19939;-55
2023/05/05 05:46:49;;;;;;;;;;;;;;;19.19;78.79;100205.19;5089052;28;19919;-55
2023/05/05 05:49:15;;;;;;;;;;;;;;;19.24;78.32;100206.59;5089367;28;19920;-55
2023/05/05 05:51:40;;;;;;;;;;;;;;;19.44;77.59;100208.03;5091518;28;19920;-55
2023/05/05 05:54:06;;;;;;;;;;;;;;;19.49;77.87;100208.59;5089428;28;19950;-55
2023/05/05 05:56:31;;;;;;;;;;;;;;;19.56;76.68;100202.69;5087756;28;20393;-55
2023/05/05 05:58:56;;;;;;;;;;;;;;;19.70;76.74;100209.88;5088748;28;20376;-55
2023/05/05 06:01:21;;;;;;;;;;;;;;;19.77;75.95;100211.19;5088344;28;20769;-55
2023/05/05 06:03:47;;;;;;;;;;;;;;;19.90;75.64;100211.25;5088997;28;19924;-55
2023/05/05 06:06:12;;;;;;;;;;;;;;;19.91;75.85;100207.56;5089156;28;19923;-55
2023/05/05 06:08:37;;;;;;;;;;;;;;;20.06;75.69;100220.03;5089526;28;20368;-55
2023/05/05 06:11:03;;;;;;;;;;;;;;;20.09;74.84;100223.38;5089196;28;19927;-55
2023/05/05 06:13:28;;;;;;;;;;;;;;;20.09;74.75;100223.38;5067413;28;19920;-55
2023/05/05 06:15:53;;;;;;;;;;;;;;;20.14;75.61;100225.75;5069733;28;19986;-55
2023/05/05 06:18:18;;;;;;;;;;;;;;;20.14;75.22;100231.16;5055186;28;19944;-55
2023/05/05 06:20:44;;;;;;;;;;;;;;;20.16;75.62;100230.16;5089398;28;20011;-55
2023/05/05 06:23:09;;;;;;;;;;;;;;;20.10;75.72;100225.09;5090039;28;19938;-55
2023/05/05 06:25:34;;;;;;;;;;;;;;;20.08;76.48;100237.84;5089852;28;19964;-55
2023/05/05 06:28:00;;;;;;;;;;;;;;;20.03;76.84;100237.28;5093731;28;19919;-55
2023/05/05 06:30:26;;;;;;;;;;;;;;;20.05;77.15;100232.66;5092694;28;19920;-55
2023/05/05 06:32:53;;;;;;;;;;;;;;;20.10;77.91;100235.06;5079300;28;19928;-55
2023/05/05 06:35:18;;;;;;;;;;;;;;;20.19;77.34;100235.34;5095912;28;20010;-55
2023/05/05 06:37:43;;;;;;;;;;;;;;;20.23;77.50;100242.22;5098369;28;20038;-55
2023/05/05 06:40:09;;;;;;;;;;;;;;;20.27;77.74;100243.78;5095359;28;20438;-55
2023/05/05 06:42:34;;;;;;;;;;;;;;;20.36;76.93;100245.81;5095965;28;19919;-55
2023/05/05 06:45:00;;;;;;;;;;;;;;;20.43;76.17;100246.25;5095543;28;20443;-55
2023/05/05 06:47:25;;;;;;;;;;;;;;;20.56;75.87;100245.31;5078345;28;19917;-55
2023/05/05 06:49:50;;;;;;;;;;;;;;;20.77;75.02;100246.50;5096394;28;20035;-55
2023/05/05 06:52:16;;;;;;;;;;;;;;;20.89;74.22;100244.78;5095310;28;19920;-55
2023/05/05 06:54:42;;;;;;;;;;;;;;;21.11;73.59;100245.00;5096131;28;20343;-55
2023/05/05 06:57:07;;;;;;;;;;;;;;;21.20;71.73;100235.38;5095005;28;19919;-55
2023/05/05 06:59:32;;;;;;;;;;;;;;;21.37;70.30;100237.69;5096097;28;19999;-55
2023/05/05 07:01:58;;;;;;;;;;;;;;;21.38;69.18;100237.59;5096058;28;20371;-55
2023/05/05 07:04:23;;;;;;;;;;;;;;;21.51;70.02;100229.44;5094528;28;19931;-54
2023/05/05 07:06:48;;;;;;;;;;;;;;;21.69;69.54;100230.78;5096178;28;19916;-55
2023/05/05 07:09:14;;;;;;;;;;;;;;;21.81;68.96;100232.59;5095055;28;20321;-55
2023/05/05 07:11:39;;;;;;;;;;;;;;;21.84;68.52;100232.38;5095886;28;19916;-54
2023/05/05 07:14:05;;;;;;;;;;;;;;;21.97;69.07;100231.34;5095859;28;19920;-55
2023/05/05 07:16:30;;;;;;;;;;;;;;;22.12;68.77;100223.88;5094884;28;20649;-55
2023/05/05 07:18:55;;;;;;;;;;;;;;;22.20;67.58;100232.28;5077682;28;20368;-55
2023/05/05 07:21:21;;;;;;;;;;;;;;;22.39;67.56;100237.16;5094953;28;19938;-55
2023/05/05 07:23:46;;;;;;;;;;;;;;;22.64;67.51;100243.28;5095899;28;19919;-55
2023/05/05 07:26:12;;;;;;;;;;;;;;;23.06;66.81;100245.28;5097161;28;19912;-56
2023/05/05 07:28:37;;;;;;;;;;;;;;;23.34;63.84;100241.25;5095610;28;19923;-55
2023/05/05 07:31:02;;;;;;;;;;;;;;;23.90;63.03;100244.72;5095570;28;19924;-55
2023/05/05 07:33:27;;;;;;;;;;;;;;;24.01;57.53;100247.41;5098327;28;20287;-55
2023/05/05 07:35:53;;;;;;;;;;;;;;;23.85;57.67;100239.69;5094983;28;20010;-55
2023/05/05 07:38:18;;;;;;;;;;;;;;;23.82;59.90;100237.19;5094667;28;19978;-55
2023/05/05 07:40:43;;;;;;;;;;;;;;;24.14;58.29;100237.22;5092897;28;19916;-55
2023/05/05 07:43:08;;;;;;;;;;;;;;;24.30;56.52;100233.06;5092373;28;20093;-55
2023/05/05 07:45:34;;;;;;;;;;;;;;;24.17;56.91;100231.53;5092607;28;19916;-55
2023/05/05 07:47:59;;;;;;;;;;;;;;;24.40;55.89;100231.31;5091761;28;19920;-55
2023/05/05 07:50:25;;;;;;;;;;;;;;;24.47;56.23;100229.78;5092389;28;19916;-55
2023/05/05 07:52:51;;;;;;;;;;;;;;;24.59;55.93;100227.84;5092485;28;19926;-55
2023/05/05 07:55:16;;;;;;;;;;;;;;;25.05;53.28;100221.97;5091338;28;19916;-55
2023/05/05 07:57:41;;;;;;;;;;;;;;;25.74;50.96;100213.78;5092028;28;20382;-55
2023/05/05 08:00:08;;;;;;;;;;;;;;;26.21;49.88;100212.09;5089278;28;20384;-55
2023/05/05 08:02:33;;;;;;;;;;;;;;;26.47;48.05;100215.13;5071332;28;19916;-55
2023/05/05 08:04:58;;;;;;;;;;;;;;;25.98;48.42;100215.25;5070889;28;19925;-55
2023/05/05 08:07:23;;;;;;;;;;;;;;;25.87;49.25;100213.50;5088603;28;19973;-55
2023/05/05 08:09:49;;;;;;;;;;;;;;;25.80;50.38;100218.66;5090922;28;20383;-55
2023/05/05 08:12:16;;;;;;;;;;;;;;;25.90;51.32;100219.53;5090323;28;19947;-56
2023/05/05 08:14:42;;;;;;;;;;;;;;;25.75;50.82;100225.53;5091801;28;19927;-55
2023/05/05 08:17:07;;;;;;;;;;;;;;;25.26;52.19;100229.09;5091442;28;20276;-55
2023/05/05 08:19:32;;;;;;;;;;;;;;;25.14;54.74;100224.75;5091369;28;19912;-55
2023/05/05 08:21:57;;;;;;;;;;;;;;;25.15;54.73;100231.06;5091894;28;19916;-55
2023/05/05 08:24:23;;;;;;;;;;;;;;;24.73;54.44;100222.09;5091640;28;19927;-55
2023/05/05 08:26:48;;;;;;;;;;;;;;;24.47;55.10;100224.34;5091127;28;20296;-55
2023/05/05 08:29:13;;;;;;;;;;;;;;;24.42;55.86;100236.59;5091603;28;19920;-55
2023/05/05 08:31:39;;;;;;;;;;;;;;;24.41;54.96;100229.44;5092085;28;20554;-55
2023/05/05 08:34:04;;;;;;;;;;;;;;;24.41;55.18;100229.44;5091494;28;19923;-54
2023/05/05 08:36:30;;;;;;;;;;;;;;;24.43;55.70;100228.31;5099535;28;19924;-54
2023/05/05 08:38:55;;;;;;;;;;;;;;;24.56;55.46;100217.25;5091440;28;19916;-54
2023/05/05 08:41:20;;;;;;;;;;;;;;;24.85;53.38;100212.00;5090669;28;20240;-54
2023/05/05 08:43:49;;;;;;;;;;;;;;;25.06;52.89;100210.94;5091354;28;19966;-55
2023/05/05 08:46:15;;;;;;;;;;;;;;;25.19;52.00;100214.31;5091862;28;19947;-54
2023/05/05 08:48:41;;;;;;;;;;;;;;;25.42;52.14;100210.41;5091295;28;19946;-55
2023/05/05 08:51:08;;;;;;;;;;;;;;;25.48;51.98;100211.72;5088885;28;20353;-54
2023/05/05 08:53:45;;;;;;;;;;;;;;;25.61;50.82;100213.19;5090448;28;19916;-54
2023/05/05 08:56:12;;;;;;;;;;;;;;;25.65;51.54;100220.06;5088556;28;19959;-54
2023/05/05 08:58:37;;;;;;;;;;;;;;;25.89;51.95;100209.66;5089389;28;20014;-55
2023/05/05 09:01:04;;;;;;;;;;;;;;;26.03;52.15;100208.38;5089665;28;20659;-55
2023/05/05 09:03:30;;;;;;;;;;;;;;;26.05;51.43;100216.41;5088731;28;19924;-55
2023/05/05 09:05:56;;;;;;;;;;;;;;;26.02;51.01;100208.53;5089429;28;19920;-55
2023/05/05 09:08:22;;;;;;;;;;;;;;;26.14;51.39;100208.25;5090578;28;19927;-55
2023/05/05 09:10:47;;;;;;;;;;;;;;;26.13;50.95;100213.84;5091130;28;19916;-55
2023/05/05 09:13:13;;;;;;;;;;;;;;;25.98;51.52;100205.19;5090216;28;19920;-55
2023/05/05 09:15:40;;;;;;;;;;;;;;;25.87;50.50;100208.94;5090768;28;19950;-55
2023/05/05 09:18:10;;;;;;;;;;;;;;;25.66;50.79;100205.47;5090031;28;19920;-55
2023/05/05 09:20:37;;;;;;;;;;;;;;;25.55;50.98;100211.00;5090899;28;19916;-55
2023/05/05 09:23:12;;;;;;;;;;;;;;;25.41;50.21;100218.72;5091105;28;19947;-55
2023/05/05 09:25:38;;;;;;;;;;;;;;;25.43;52.06;100211.28;5092311;28;19959;-55
2023/05/05 09:28:07;;;;;;;;;;;;;;;25.66;50.36;100204.59;5090437;28;19951;-55
2023/05/05 09:30:33;;;;;;;;;;;;;;;25.95;49.17;100214.53;5089453;28;19924;-55
2023/05/05 09:33:00;;;;;;;;;;;;;;;26.24;49.30;100205.53;5090438;28;19920;-55
2023/05/05 09:35:26;;;;;;;;;;;;;;;26.98;49.50;100196.50;5089541;28;20452;-55
2023/05/05 09:37:51;;;;;;;;;;;;;;;27.32;48.02;100200.38;5090160;28;19967;-55
2023/05/05 09:40:17;;;;;;;;;;;;;;;27.59;45.84;100213.19;5092124;28;19946;-55
2023/05/05 09:42:43;;;;;;;;;;;;;;;28.09;46.07;100217.16;5090259;28;20014;-55
2023/05/05 09:45:17;;;;;;;;;;;;;;;28.17;44.94;100215.38;5099222;28;19920;-55
2023/05/05 09:47:44;;;;;;;;;;;;;;;28.01;43.83;100209.75;5097554;28;19927;-55
2023/05/05 09:50:14;;;;;;;;;;;;;;;28.40;45.15;100205.66;5089964;28;20037;-56
2023/05/05 09:52:40;;;;;;;;;;;;;;;28.86;43.65;100207.25;5089488;28;19927;-56
2023/05/05 09:55:06;;;;;;;;;;;;;;;28.91;42.56;100209.50;5089564;28;19916;-55
2023/05/05 09:57:32;;;;;;;;;;;;;;;28.85;41.59;100207.38;5088829;28;19926;-55
2023/05/05 09:59:59;;;;;;;;;;;;;;;28.97;42.40;100209.69;5088101;28;19919;-55
2023/05/05 10:02:31;;;;;;;;;;;;;;;28.76;42.18;100208.38;5087671;28;20401;-55
2023/05/05 10:05:23;;;;;;;;;;;;;;;28.65;41.60;100200.44;5088848;28;19963;-55
2023/05/05 10:07:48;;;;;;;;;;;;;;;28.54;42.90;100196.06;5084845;28;19920;-55
2023/05/05 10:10:15;;;;;;;;;;;;;;;28.59;41.44;100193.69;5089173;28;20411;-55
2023/05/05 10:12:41;;;;;;;;;;;;;;;28.31;42.28;100201.16;5089990;28;20474;-55
2023/05/05 10:15:07;;;;;;;;;;;;;;;28.24;40.50;100197.31;5088531;28;20002;-55
2023/05/05 10:17:35;;;;;;;;;;;;;;;28.42;42.24;100203.63;5089556;28;19916;-55
2023/05/05 10:20:02;;;;;;;;;;;;;;;28.22;42.57;100196.59;5088680;28;20429;-55
2023/05/05 10:22:29;;;;;;;;;;;;;;;28.28;43.40;100195.13;5089358;28;19923;-55
2023/05/05 10:25:02;;;;;;;;;;;;;;;28.03;42.62;100195.91;5089714;28;19920;-55
2023/05/05 10:27:28;;;;;;;;;;;;;;;27.80;42.28;100190.03;5088967;28;20027;-55
2023/05/05 10:30:03;;;;;;;;;;;;;;;27.93;42.37;100190.53;5089582;28;20006;-55
2023/05/05 10:32:49;;;;;;;;;;;;;;;28.25;41.77;100188.06;5087243;28;19935;-55
2023/05/05 10:35:21;;;;;;;;;;;;;;;28.79;42.12;100194.34;5089642;28;19916;-55
2023/05/05 10:37:47;;;;;;;;;;;;;;;29.18;42.49;100174.56;5089083;28;20372;-55
2023/05/05 10:40:13;;;;;;;;;;;;;;;29.07;41.60;100172.09;5089383;28;19920;-55
2023/05/05 10:42:39;;;;;;;;;;;;;;;29.20;40.67;100171.66;5089102;28;20391;-56
2023/05/05 10:45:04;;;;;;;;;;;;;;;29.15;41.47;100171.28;5091667;28;19916;-55
2023/05/05 10:47:30;;;;;;;;;;;;;;;29.14;40.34;100161.38;5089471;28;19947;-55
2023/05/05 10:50:08;;;;;;;;;;;;;;;28.99;41.91;100163.84;5088552;28;19935;-55
2023/05/05 10:52:39;;;;;;;;;;;;;;;28.66;41.57;100156.44;5088710;28;19920;-55
2023/05/05 10:55:13;;;;;;;;;;;;;;;28.63;43.27;100147.69;5087951;28;19974;-56
2023/05/05 10:57:40;;;;;;;;;;;;;;;28.99;42.87;100152.88;5087288;28;19916;-56
2023/05/05 11:00:07;;;;;;;;;;;;;;;29.47;42.37;100146.78;5088250;28;20300;-56
2023/05/05 11:02:32;;;;;;;;;;;;;;;30.21;40.31;100142.09;5087530;28;19924;-56
2023/05/05 11:05:15;;;;;;;;;;;;;;;30.75;39.69;100138.63;5088063;28;19973;-56
2023/05/05 11:07:41;;;;;;;;;;;;;;;31.37;39.08;100141.56;5087641;28;19924;-56
2023/05/05 11:10:07;;;;;;;;;;;;;;;31.34;38.78;100136.41;5088650;28;20376;-56
2023/05/05 11:12:52;;;;;;;;;;;;;;;31.15;38.55;100132.19;5089236;28;19912;-56
2023/05/05 11:15:21;;;;;;;;;;;;;;;30.83;37.80;100127.66;5092898;28;19913;-55
2023/05/05 11:17:46;;;;;;;;;;;;;;;30.49;39.55;100124.28;5092220;28;19958;-56
2023/05/05 11:20:11;;;;;;;;;;;;;;;30.70;39.68;100121.81;5095781;28;19959;-56
2023/05/05 11:22:56;;;;;;;;;;;;;;;30.19;38.06;100118.59;5093509;28;19912;-55
2023/05/05 11:25:33;;;;;;;;;;;;;;;30.53;38.48;100114.63;5093044;28;19916;-56
2023/05/05 11:28:07;;;;;;;;;;;;;;;30.51;37.42;100111.19;5092197;28;19950;-55
2023/05/05 11:30:33;;;;;;;;;;;;;;;30.27;38.07;100114.00;5092847;28;19928;-56
2023/05/05 11:33:17;;;;;;;;;;;;;;;30.79;38.59;100106.22;5092082;28;19917;-57
2023/05/05 11:35:55;;;;;;;;;;;;;;;30.43;39.39;100105.72;5093539;28;19991;-55
2023/05/05 11:38:39;;;;;;;;;;;;;;;29.77;39.18;100104.19;5092568;28;20738;-55
2023/05/05 11:41:10;;;;;;;;;;;;;;;29.61;40.17;100103.09;5091313;28;20283;-55
2023/05/05 11:43:36;;;;;;;;;;;;;;;29.56;40.86;100104.63;5092586;28;20295;-56
2023/05/05 11:46:14;;;;;;;;;;;;;;;29.71;40.88;100099.34;5092487;28;19973;-56
2023/05/05 11:48:46;;;;;;;;;;;;;;;29.77;40.32;100106.94;5091377;28;19923;-56
2023/05/05 11:51:15;;;;;;;;;;;;;;;29.74;39.89;100097.13;5093153;28;20376;-56
2023/05/05 11:53:44;;;;;;;;;;;;;;;29.80;39.41;100099.22;5092537;28;20006;-56
2023/05/05 11:56:11;;;;;;;;;;;;;;;29.80;39.78;100088.25;5092389;28;19990;-56
2023/05/05 11:58:36;;;;;;;;;;;;;;;29.97;39.58;100078.97;5092769;28;20543;-56
2023/05/05 12:01:05;;;;;;;;;;;;;;;29.94;40.35;100079.31;5092274;28;19916;-56
2023/05/05 12:03:34;;;;;;;;;;;;;;;30.10;40.59;100079.31;5092049;28;20003;-56
2023/05/05 12:06:00;;;;;;;;;;;;;;;30.16;41.04;100078.66;5091069;28;19916;-56
2023/05/05 12:08:26;;;;;;;;;;;;;;;30.26;40.97;100067.50;5092269;28;19923;-56
2023/05/05 12:10:51;;;;;;;;;;;;;;;30.25;40.41;100072.13;5091288;28;19931;-56
2023/05/05 12:13:17;;;;;;;;;;;;;;;30.40;39.55;100059.41;5091783;28;19916;-56
2023/05/05 12:15:42;;;;;;;;;;;;;;;30.53;39.39;100053.34;5090619;28;19920;-56
2023/05/05 12:18:16;;;;;;;;;;;;;;;30.49;40.02;100052.88;5092202;28;19939;-56
2023/05/05 12:20:42;;;;;;;;;;;;;;;30.55;38.38;100052.16;5091547;28;19927;-56
2023/05/05 12:23:10;;;;;;;;;;;;;;;31.06;38.08;100052.66;5090636;28;19920;-56
2023/05/05 12:25:36;;;;;;;;;;;;;;;30.56;37.95;100050.28;5090457;28;19916;-56
2023/05/05 12:28:02;;;;;;;;;;;;;;;31.10;38.25;100045.78;5090839;28;19915;-56
2023/05/05 12:30:27;;;;;;;;;;;;;;;31.49;37.00;100044.72;5089487;28;19947;-56
2023/05/05 12:33:02;;;;;;;;;;;;;;;32.16;36.85;100040.19;5090592;28;19975;-55
2023/05/05 12:35:28;;;;;;;;;;;;;;;32.44;35.57;100027.53;5089937;28;20010;-55